Vremea mâine în Miercurea Nirajului - Romania

Vrei sa afli care e starea vremii acum in Mures - Romania? Dorim sa iti furnizam starea vremii pentru Mures - Romania. Starea vremii Mures - Romania pentru astazi.

Vremea mâine în Miercurea Nirajului

Temperatura minimă:
7.2 °C

Temperatura maximă:
21.8 °C

Mâine va fi: Senin
Precipitații: 0 %
Umiditate: 66%
Viteza maximă vânt mâine:
7.2 km/h

Evoluția vremii in Miercurea Nirajului pe ore mâine

Ora: 04:00
Temperatura: °C
Sansa de precipitatii: %
Ora Descriere Temp Se simte Precipitatii Umiditate Vant
00:00Senin10.4°10.9°0%83%ESE 3.2 KM/H
01:00Senin9.8°9.8°0%84%ESE 2.2 KM/H
02:00Senin9.1°9.4°0%85%E 3.2 KM/H
03:00Senin8.5°8.5°0%86%ESE 4 KM/H
04:00Senin7.8°0%86%ESE 4.3 KM/H
05:00Senin7.6°7.3°0%87%ESE 4.3 KM/H
06:00Senin7.2°6.9°0%87%ESE 4.3 KM/H
07:00Senin8.3°8.2°0%85%ESE 4 KM/H
08:00Senin11°11.2°0%78%ESE 4 KM/H
09:00Senin13.3°13.5°0%72%SE 5 KM/H
10:00Senin15.5°15.5°0%66%SE 6.5 KM/H
11:00Senin17.5°17.5°0%59%SSE 7.2 KM/H
12:00Senin19.2°19.2°0%51%SSE 6.8 KM/H
13:00Senin20.3°20.3°0%46%SSE 7.2 KM/H
14:00Senin21.1°21.1°0%43%S 7.2 KM/H
15:00Senin21.6°21.6°0%41%SSW 7.2 KM/H
16:00Senin21.8°21.8°0%41%SSW 6.5 KM/H
17:00Senin21.8°21.8°0%41%S 5.4 KM/H
18:00Senin21.6°21.7°0%43%S 4.7 KM/H
19:00Senin20.8°20.8°0%56%SSE 2.2 KM/H
20:00Senin16.9°16.9°0%60%SE 2.5 KM/H
21:00Senin14.4°15°0%64%SE 4 KM/H
22:00Senin13.3°13.5°0%65%ESE 5.4 KM/H
23:00Senin12.3°11.9°0%67%ESE 6.8 KM/H




tutorials